createdAt,value
2022-08-29T00:04:30.789Z,457.00
2022-08-29T00:10:02.500Z,458.00
2022-08-29T00:15:35.154Z,455.00
2022-08-29T00:21:05.736Z,456.00
2022-08-29T00:32:07.554Z,461.00
2022-08-29T00:37:39.397Z,458.00
2022-08-29T00:45:37.894Z,0.00
2022-08-29T00:51:09.566Z,459.00
2022-08-29T00:56:41.533Z,458.00
2022-08-29T01:02:13.324Z,462.00
2022-08-29T01:07:45.049Z,464.00
2022-08-29T01:24:21.828Z,482.00
2022-08-29T01:29:53.354Z,473.00
2022-08-29T01:35:24.837Z,464.00
2022-08-29T01:40:56.680Z,464.00
2022-08-29T01:46:28.421Z,469.00
2022-08-29T01:52:00.170Z,475.00
2022-08-29T01:57:32.064Z,481.00
2022-08-29T02:08:38.593Z,493.00
2022-08-29T02:14:19.368Z,493.00
2022-08-29T02:19:47.934Z,496.00
2022-08-29T02:25:19.475Z,496.00
2022-08-29T02:30:55.834Z,496.00
2022-08-29T02:36:22.392Z,499.00
2022-08-29T02:47:22.996Z,488.00
2022-08-29T02:52:54.420Z,484.00
2022-08-29T02:58:25.707Z,483.00
2022-08-29T03:03:57.703Z,487.00
2022-08-29T03:09:35.219Z,486.00
2022-08-29T03:15:06.795Z,490.00
2022-08-29T03:20:38.503Z,485.00
2022-08-29T03:26:10.325Z,491.00
2022-08-29T03:31:42.154Z,486.00
2022-08-29T03:37:13.918Z,491.00
2022-08-29T03:42:45.432Z,493.00
2022-08-29T03:48:16.715Z,497.00
2022-08-29T03:53:48.103Z,498.00
2022-08-29T03:59:19.879Z,505.00
2022-08-29T04:04:57.701Z,507.00
2022-08-29T04:10:29.348Z,517.00
2022-08-29T04:16:01.312Z,518.00
2022-08-29T04:21:38.887Z,517.00
2022-08-29T04:27:11.246Z,514.00
2022-08-29T04:32:43.272Z,518.00
2022-08-29T04:38:15.087Z,519.00
2022-08-29T04:43:46.796Z,520.00
2022-08-29T04:49:18.427Z,521.00
2022-08-29T04:54:50.187Z,522.00
2022-08-29T05:00:21.773Z,524.00
2022-08-29T05:05:53.171Z,523.00
2022-08-29T05:11:24.695Z,521.00
2022-08-29T05:16:56.595Z,522.00
2022-08-29T05:22:28.094Z,530.00
2022-08-29T05:27:59.474Z,532.00
2022-08-29T05:33:31.484Z,529.00
2022-08-29T05:39:03.418Z,533.00
2022-08-29T05:44:35.617Z,541.00
2022-08-29T05:50:06.819Z,540.00
2022-08-29T05:55:38.607Z,537.00
2022-08-29T06:01:10.354Z,540.00
2022-08-29T06:06:42.155Z,540.00
2022-08-29T06:12:14.036Z,541.00
2022-08-29T06:17:45.844Z,536.00
2022-08-29T06:23:17.391Z,538.00
2022-08-29T06:28:49.207Z,538.00
2022-08-29T06:34:21.061Z,534.00
2022-08-29T06:39:52.941Z,534.00
2022-08-29T06:45:24.309Z,533.00
2022-08-29T06:50:55.618Z,529.00
2022-08-29T06:56:27.143Z,530.00
2022-08-29T07:01:58.720Z,524.00
2022-08-29T07:07:30.274Z,521.00
2022-08-29T07:13:01.966Z,519.00
2022-08-29T07:18:33.930Z,514.00
2022-08-29T07:24:05.629Z,501.00
2022-08-29T07:29:37.447Z,501.00
2022-08-29T07:35:12.832Z,500.00
2022-08-29T07:40:41.313Z,496.00
2022-08-29T07:46:12.583Z,490.00
2022-08-29T07:51:44.868Z,482.00
2022-08-29T07:57:16.465Z,470.00
2022-08-29T08:02:48.030Z,467.00
2022-08-29T08:08:19.755Z,467.00
2022-08-29T08:13:51.135Z,462.00
2022-08-29T08:19:22.454Z,457.00
2022-08-29T08:24:53.816Z,461.00
2022-08-29T08:30:25.671Z,458.00
2022-08-29T08:35:57.042Z,455.00
2022-08-29T08:41:28.907Z,438.00
2022-08-29T08:47:00.455Z,433.00
2022-08-29T08:52:31.683Z,424.00
2022-08-29T08:58:03.129Z,424.00
2022-08-29T09:03:34.937Z,418.00
2022-08-29T09:09:06.763Z,419.00
2022-08-29T09:14:38.458Z,415.00
2022-08-29T09:20:10.404Z,411.00
2022-08-29T09:25:42.265Z,408.00
2022-08-29T09:31:13.680Z,409.00
2022-08-29T09:36:47.667Z,408.00
2022-08-29T09:42:16.739Z,407.00
2022-08-29T09:47:48.141Z,400.00
2022-08-29T09:53:24.835Z,397.00
2022-08-29T09:58:51.577Z,394.00
2022-08-29T10:04:23.563Z,392.00
2022-08-29T10:09:55.247Z,383.00
2022-08-29T10:15:46.975Z,388.00
2022-08-29T10:20:59.009Z,388.00
2022-08-29T10:26:37.192Z,388.00
2022-08-29T10:32:08.803Z,385.00
2022-08-29T10:37:40.860Z,383.00
2022-08-29T10:43:13.271Z,384.00
2022-08-29T10:48:45.042Z,383.00
2022-08-29T10:56:36.726Z,383.00
2022-08-29T11:02:08.651Z,377.00
2022-08-29T11:07:40.098Z,384.00
2022-08-29T11:13:12.008Z,382.00
2022-08-29T11:18:44.048Z,383.00
2022-08-29T11:24:15.774Z,382.00
2022-08-29T11:29:47.751Z,377.00
2022-08-29T11:41:26.050Z,376.00
2022-08-29T11:46:21.853Z,375.00
2022-08-29T11:51:53.751Z,365.00
2022-08-29T11:57:26.340Z,361.00
2022-08-29T12:02:58.022Z,358.00
2022-08-29T12:08:36.963Z,360.00
2022-08-29T12:14:02.641Z,354.00
2022-08-29T12:19:33.371Z,355.00
2022-08-29T12:25:05.204Z,356.00
2022-08-29T12:36:07.171Z,349.00
2022-08-29T12:47:09.007Z,346.00
2022-08-29T12:52:40.479Z,352.00
2022-08-29T12:58:12.251Z,351.00
2022-08-29T13:09:17.628Z,350.00
2022-08-29T13:14:45.515Z,350.00
2022-08-29T13:25:47.358Z,353.00
2022-08-29T13:31:19.058Z,354.00
2022-08-29T13:42:26.300Z,353.00
2022-08-29T13:53:27.967Z,336.00
2022-08-29T13:58:59.841Z,335.00
2022-08-29T14:04:38.860Z,334.00
2022-08-29T14:21:02.640Z,340.00
2022-08-29T14:26:40.071Z,338.00
2022-08-29T14:32:11.698Z,343.00
2022-08-29T14:37:43.219Z,342.00
2022-08-29T14:48:44.681Z,353.00
2022-08-29T14:54:16.291Z,353.00
2022-08-29T14:59:48.297Z,351.00
2022-08-29T15:05:20.137Z,347.00
2022-08-29T15:10:51.693Z,348.00
2022-08-29T15:38:26.376Z,348.00
2022-08-29T15:43:58.054Z,349.00
2022-08-29T16:00:30.964Z,346.00
2022-08-29T16:06:01.287Z,345.00
2022-08-29T16:11:34.813Z,344.00
2022-08-29T16:17:14.011Z,346.00
2022-08-29T16:22:44.488Z,349.00
2022-08-29T16:28:17.401Z,343.00
2022-08-29T16:39:21.005Z,341.00
2022-08-29T16:44:52.486Z,341.00
2022-08-29T16:50:23.772Z,342.00
2022-08-29T16:55:55.229Z,343.00
2022-08-29T17:01:26.829Z,343.00
2022-08-29T17:06:58.444Z,339.00
2022-08-29T17:12:29.828Z,340.00
2022-08-29T17:18:01.204Z,340.00
2022-08-29T17:23:32.980Z,339.00
2022-08-29T17:29:04.704Z,339.00
2022-08-29T17:34:36.248Z,337.00
2022-08-29T17:40:07.803Z,338.00
2022-08-29T17:45:39.463Z,342.00
2022-08-29T17:51:11.339Z,344.00
2022-08-29T17:56:44.252Z,343.00
2022-08-29T18:02:14.778Z,344.00
2022-08-29T18:07:46.512Z,348.00
2022-08-29T18:13:21.601Z,348.00
2022-08-29T18:18:49.913Z,344.00
2022-08-29T18:24:21.410Z,342.00
2022-08-29T18:29:52.978Z,342.00
2022-08-29T18:35:24.955Z,339.00
2022-08-29T18:40:56.662Z,344.00
2022-08-29T18:46:28.426Z,347.00
2022-08-29T18:52:00.165Z,351.00
2022-08-29T18:57:32.066Z,357.00
2022-08-29T19:03:04.011Z,360.00
2022-08-29T19:08:35.597Z,361.00
2022-08-29T19:14:07.033Z,361.00
2022-08-29T19:19:38.712Z,363.00
2022-08-29T19:25:10.011Z,359.00
2022-08-29T19:30:41.210Z,360.00
2022-08-29T19:36:12.641Z,362.00
2022-08-29T19:41:44.320Z,369.00
2022-08-29T19:58:19.401Z,377.00
2022-08-29T20:14:57.071Z,379.00
2022-08-29T20:26:00.154Z,381.00
2022-08-29T20:31:31.553Z,382.00
2022-08-29T20:37:02.751Z,380.00
2022-08-29T20:42:34.258Z,383.00
2022-08-29T20:48:06.120Z,389.00
2022-08-29T20:53:37.787Z,393.00
2022-08-29T20:59:09.312Z,405.00
2022-08-29T21:04:41.032Z,418.00
2022-08-29T21:10:12.644Z,419.00
2022-08-29T21:15:44.488Z,422.00
2022-08-29T21:21:16.608Z,431.00
2022-08-29T21:26:48.508Z,426.00
2022-08-29T21:32:20.003Z,427.00
2022-08-29T21:37:51.700Z,430.00
2022-08-29T21:43:23.360Z,435.00
2022-08-29T21:48:56.771Z,434.00
2022-08-29T21:54:27.019Z,442.00
2022-08-29T21:59:58.571Z,445.00
2022-08-29T22:05:31.004Z,448.00
2022-08-29T22:11:01.708Z,451.00
2022-08-29T22:16:33.609Z,456.00
2022-08-29T22:22:05.859Z,467.00
2022-08-29T22:27:38.050Z,464.00
2022-08-29T22:33:16.191Z,464.00
2022-08-29T22:38:42.168Z,465.00
2022-08-29T22:44:59.813Z,465.00
2022-08-29T22:49:45.973Z,465.00
2022-08-29T22:55:17.627Z,466.00
2022-08-29T23:00:49.662Z,467.00
2022-08-29T23:06:21.892Z,469.00
2022-08-29T23:11:53.435Z,472.00
2022-08-29T23:17:25.382Z,465.00
2022-08-29T23:22:57.065Z,462.00
2022-08-29T23:28:28.985Z,464.00
2022-08-29T23:34:00.711Z,463.00
2022-08-29T23:39:32.557Z,465.00
2022-08-29T23:45:04.508Z,461.00
2022-08-29T23:50:36.696Z,463.00
2022-08-29T23:56:08.772Z,459.00
